Terminal Aerodrome Forecast
Issued by NWS Binghamton, NY

Home | Current Version | Previous Version | Text Only | Print | Product List | Glossary On
Versions: 1 2 3 4 5 6 7 8 9 10 11 12 13 14 15 16 17 18
092
FTUS41 KBGM 280555
TAFSYR
TAF
KSYR 280555Z 2806/2906 13005KT P6SM BKN250
     FM281200 19010KT P6SM SCT050 BKN120
     FM281800 21012G22KT P6SM BKN050 PROB30 2821/2824 4SM TSRA BR
      OVC025CB
     FM290000 VRB03KT P6SM SCT040 BKN070=

USA.gov is the U.S. government's official web portal to all federal, state and local government web resources and services.